Terminal Aerodrome Forecast
Issued by NWS

Home | Current Version | Previous Version | Text Only | Print | Product List | Glossary On
Versions: 1 2 3 4 5 6 7 8 9 10 11 12 13 14 15 16 17 18 19 20 21 22
000
FTUS46 KLOX 250857 AAB
TAFPRB
TAF AMD
KPRB 250857Z 2509/2606 VRB03KT P6SM VCSH SCT012 BKN020 OVC050
     FM251200 VRB03KT P6SM VCSH SCT015 OVC025
     FM251600 32006KT P6SM BKN030
     FM252100 32013KT P6SM BKN030
     FM260400 31007KT P6SM SCT050 BKN150=

USA.gov is the U.S. government's official web portal to all federal, state and local government web resources and services.